createdAt,value
2017-02-01T00:00:51.558Z,0
2017-02-01T00:02:02.192Z,0
2017-02-01T00:03:12.046Z,0
2017-02-01T00:04:22.681Z,0
2017-02-01T00:05:33.196Z,0
2017-02-01T00:06:43.442Z,0
2017-02-01T00:07:53.285Z,0
2017-02-01T00:09:03.528Z,0
2017-02-01T00:10:13.396Z,0
2017-02-01T00:11:23.497Z,0
2017-02-01T00:12:34.126Z,0
2017-02-01T00:13:44.378Z,0
2017-02-01T00:14:55.013Z,0
2017-02-01T00:16:04.866Z,0
2017-02-01T00:17:15.749Z,0
2017-02-01T00:18:26.379Z,0
2017-02-01T00:19:36.216Z,0
2017-02-01T00:20:46.460Z,0
2017-02-01T00:21:57.091Z,0
2017-02-01T00:23:07.882Z,0
2017-02-01T00:24:17.730Z,0
2017-02-01T00:25:27.983Z,0
2017-02-01T00:26:38.233Z,0
2017-02-01T00:27:48.873Z,0
2017-02-01T00:28:58.976Z,0
2017-02-01T00:30:09.208Z,0
2017-02-01T00:31:19.451Z,0
2017-02-01T00:32:29.707Z,0
2017-02-01T00:33:39.576Z,0
2017-02-01T00:34:50.477Z,0
2017-02-01T00:36:00.336Z,0
2017-02-01T00:37:09.797Z,0
2017-02-01T00:38:19.651Z,0
2017-02-01T00:39:30.299Z,0
2017-02-01T00:40:40.423Z,0
2017-02-01T00:41:50.265Z,0
2017-02-01T00:43:00.523Z,0
2017-02-01T00:44:10.762Z,0
2017-02-01T00:45:21.412Z,0
2017-02-01T00:46:32.284Z,0
2017-02-01T00:47:42.530Z,0
2017-02-01T00:48:52.388Z,0
2017-02-01T00:50:03.020Z,0
2017-02-01T00:51:13.652Z,0
2017-02-01T00:52:24.162Z,0
2017-02-01T00:53:34.786Z,0
2017-02-01T00:54:45.014Z,0
2017-02-01T00:55:55.649Z,0
2017-02-01T00:57:06.292Z,0
2017-02-01T00:58:16.000Z,0
2017-02-01T00:59:26.258Z,0
2017-02-01T01:00:36.105Z,0
2017-02-01T01:01:46.738Z,0
2017-02-01T01:02:56.977Z,0
2017-02-01T01:04:07.911Z,0
2017-02-01T01:05:18.536Z,0
2017-02-01T01:06:28.772Z,0
2017-02-01T01:07:39.428Z,0
2017-02-01T01:08:50.075Z,0
2017-02-01T01:10:00.949Z,0
2017-02-01T01:11:11.212Z,0
2017-02-01T01:12:20.289Z,0
2017-02-01T01:13:30.920Z,0
2017-02-01T01:14:41.547Z,0
2017-02-01T01:15:52.029Z,0
2017-02-01T01:17:02.273Z,0
2017-02-01T01:18:12.129Z,0
2017-02-01T01:19:22.362Z,0
2017-02-01T01:20:32.607Z,0
2017-02-01T01:21:43.498Z,0
2017-02-01T01:22:53.360Z,0
2017-02-01T01:24:04.010Z,0
2017-02-01T01:25:14.257Z,0
2017-02-01T01:26:24.101Z,0
2017-02-01T01:27:34.994Z,0
2017-02-01T01:28:45.635Z,0
2017-02-01T01:29:55.484Z,0
2017-02-01T01:31:06.123Z,0
2017-02-01T01:32:15.974Z,0
2017-02-01T01:33:25.679Z,0
2017-02-01T01:34:35.922Z,0
2017-02-01T01:35:46.540Z,0
2017-02-01T01:36:57.185Z,0
2017-02-01T01:38:06.261Z,0
2017-02-01T01:39:16.356Z,0
2017-02-01T01:40:26.987Z,0
2017-02-01T01:41:37.263Z,0
2017-02-01T01:42:47.517Z,0
2017-02-01T01:43:57.757Z,0
2017-02-01T01:45:08.263Z,0
2017-02-01T01:46:18.115Z,0
2017-02-01T01:47:28.751Z,0
2017-02-01T01:48:39.423Z,0
2017-02-01T01:49:50.054Z,0
2017-02-01T01:51:00.930Z,0
2017-02-01T01:52:11.179Z,0
2017-02-01T01:53:21.422Z,0
2017-02-01T01:54:31.670Z,0
2017-02-01T01:55:41.524Z,0
2017-02-01T01:56:52.076Z,0
2017-02-01T01:58:02.321Z,0
2017-02-01T01:59:12.178Z,0
2017-02-01T02:00:22.432Z,0
2017-02-01T02:01:32.285Z,0
2017-02-01T02:02:43.208Z,0
2017-02-01T02:03:53.441Z,0
2017-02-01T02:05:04.383Z,0
2017-02-01T02:06:14.627Z,0
2017-02-01T02:07:25.284Z,0
2017-02-01T02:08:36.167Z,0
2017-02-01T02:09:46.798Z,0
2017-02-01T02:10:57.034Z,0
2017-02-01T02:12:07.660Z,0
2017-02-01T02:13:17.523Z,0
2017-02-01T02:14:28.013Z,0
2017-02-01T02:15:38.651Z,0
2017-02-01T02:16:48.541Z,0
2017-02-01T02:17:59.172Z,0
2017-02-01T02:19:08.641Z,0
2017-02-01T02:20:19.124Z,0
2017-02-01T02:21:29.752Z,0
2017-02-01T02:22:39.589Z,0
2017-02-01T02:23:49.820Z,0
2017-02-01T02:25:00.455Z,0
2017-02-01T02:26:11.363Z,0
2017-02-01T02:27:21.608Z,0
2017-02-01T02:28:32.243Z,0
2017-02-01T02:29:42.869Z,0
2017-02-01T02:30:53.505Z,0
2017-02-01T02:32:03.592Z,0
2017-02-01T02:33:13.842Z,0
2017-02-01T02:34:24.083Z,0
2017-02-01T02:35:34.712Z,0
2017-02-01T02:36:45.377Z,0
2017-02-01T02:37:55.873Z,0
2017-02-01T02:39:06.508Z,0
2017-02-01T02:40:16.763Z,0
2017-02-01T02:41:27.391Z,0
2017-02-01T02:42:38.017Z,0
2017-02-01T02:43:48.510Z,0
2017-02-01T02:44:57.977Z,0
2017-02-01T02:46:07.448Z,0
2017-02-01T02:47:18.077Z,0
2017-02-01T02:48:28.721Z,0
2017-02-01T02:49:38.822Z,0
2017-02-01T02:50:49.077Z,0
2017-02-01T02:51:59.703Z,0
2017-02-01T02:53:09.950Z,0
2017-02-01T02:54:20.584Z,0
2017-02-01T02:55:31.126Z,0
2017-02-01T02:56:40.600Z,0
2017-02-01T02:57:50.893Z,0
2017-02-01T02:59:01.144Z,0
2017-02-01T03:00:11.385Z,0
2017-02-01T03:01:22.237Z,0
2017-02-01T03:02:32.087Z,0
2017-02-01T03:03:41.973Z,0
2017-02-01T03:04:52.610Z,0
2017-02-01T03:06:03.259Z,0
2017-02-01T03:07:14.140Z,0
2017-02-01T03:08:24.772Z,0
2017-02-01T03:09:35.008Z,0
2017-02-01T03:10:44.862Z,0
2017-02-01T03:11:55.105Z,0
2017-02-01T03:13:04.821Z,0
2017-02-01T03:14:14.675Z,0
2017-02-01T03:15:25.309Z,0
2017-02-01T03:16:35.599Z,0
2017-02-01T03:17:45.869Z,0
2017-02-01T03:18:56.362Z,0
2017-02-01T03:20:06.604Z,0
2017-02-01T03:21:16.851Z,0
2017-02-01T03:22:27.506Z,0
2017-02-01T03:23:37.751Z,0
2017-02-01T03:24:48.252Z,0
2017-02-01T03:25:58.496Z,0
2017-02-01T03:27:08.746Z,0
2017-02-01T03:28:19.033Z,0
2017-02-01T03:29:29.675Z,0
2017-02-01T03:30:40.554Z,0
2017-02-01T03:31:50.797Z,0
2017-02-01T03:33:00.662Z,0
2017-02-01T03:34:10.923Z,0
2017-02-01T03:35:21.569Z,0
2017-02-01T03:36:32.579Z,0
2017-02-01T03:37:42.842Z,0
2017-02-01T03:38:53.095Z,0
2017-02-01T03:40:03.344Z,0
2017-02-01T03:41:13.594Z,0
2017-02-01T03:42:24.475Z,0
2017-02-01T03:43:35.128Z,0
2017-02-01T03:44:45.383Z,0
2017-02-01T03:45:55.644Z,0
2017-02-01T03:47:05.494Z,0
2017-02-01T03:48:15.197Z,0
2017-02-01T03:49:25.439Z,0
2017-02-01T03:50:36.063Z,0
2017-02-01T03:51:46.301Z,0
2017-02-01T03:52:56.550Z,0
2017-02-01T03:54:06.661Z,0
2017-02-01T03:55:17.296Z,0
2017-02-01T03:56:27.927Z,0
2017-02-01T03:57:38.576Z,0
2017-02-01T03:58:48.820Z,0
2017-02-01T03:59:59.692Z,0
2017-02-01T04:01:09.963Z,0
2017-02-01T04:02:20.610Z,0
2017-02-01T04:03:31.272Z,0
2017-02-01T04:04:41.554Z,0
2017-02-01T04:05:52.048Z,0
2017-02-01T04:07:02.673Z,0
2017-02-01T04:08:13.306Z,0
2017-02-01T04:09:23.961Z,0
2017-02-01T04:10:34.215Z,0
2017-02-01T04:11:44.327Z,0
2017-02-01T04:12:54.959Z,0
2017-02-01T04:14:04.815Z,0
2017-02-01T04:15:15.058Z,0
2017-02-01T04:16:25.296Z,0
2017-02-01T04:17:35.006Z,0
2017-02-01T04:18:45.275Z,0
2017-02-01T04:19:55.909Z,0
2017-02-01T04:21:06.152Z,0
2017-02-01T04:22:16.015Z,0
2017-02-01T04:23:26.439Z,0
2017-02-01T04:24:36.675Z,0
2017-02-01T04:25:46.980Z,0
2017-02-01T04:26:57.218Z,0
2017-02-01T04:28:07.467Z,0
2017-02-01T04:29:18.342Z,0
2017-02-01T04:30:28.583Z,0
2017-02-01T04:31:38.824Z,0
2017-02-01T04:32:49.457Z,0
2017-02-01T04:34:00.092Z,0
2017-02-01T04:35:10.111Z,0
2017-02-01T04:36:20.741Z,0
2017-02-01T04:37:30.980Z,0
2017-02-01T04:38:41.643Z,0
2017-02-01T04:39:51.505Z,0
2017-02-01T04:41:01.607Z,0
2017-02-01T04:42:12.241Z,0
2017-02-01T04:43:22.094Z,0
2017-02-01T04:44:32.725Z,0
2017-02-01T04:45:43.373Z,0
2017-02-01T04:46:54.287Z,0
2017-02-01T04:48:04.529Z,0
2017-02-01T04:49:15.168Z,0
2017-02-01T04:50:25.404Z,0
2017-02-01T04:51:36.038Z,0
2017-02-01T04:52:46.933Z,0
2017-02-01T04:53:57.575Z,0
2017-02-01T04:55:07.440Z,0
2017-02-01T04:56:17.692Z,0
2017-02-01T04:57:27.930Z,0
2017-02-01T04:58:38.036Z,0
2017-02-01T04:59:47.891Z,0
2017-02-01T05:00:58.535Z,0
2017-02-01T05:02:09.165Z,0
2017-02-01T05:03:19.823Z,0
2017-02-01T05:04:30.439Z,0
2017-02-01T05:05:40.127Z,0
2017-02-01T05:06:50.373Z,0
2017-02-01T05:08:00.619Z,0
2017-02-01T05:09:11.258Z,0
2017-02-01T05:10:21.750Z,0
2017-02-01T05:11:31.984Z,0
2017-02-01T05:12:42.230Z,0
2017-02-01T05:13:52.467Z,0
2017-02-01T05:15:02.715Z,0
2017-02-01T05:16:13.595Z,0
2017-02-01T05:17:24.242Z,0
2017-02-01T05:18:34.880Z,0
2017-02-01T05:19:45.517Z,0
2017-02-01T05:20:55.382Z,0
2017-02-01T05:22:06.253Z,0
2017-02-01T05:23:16.493Z,0
2017-02-01T05:24:26.759Z,0
2017-02-01T05:25:37.398Z,0
2017-02-01T05:26:48.028Z,0
2017-02-01T05:27:57.747Z,0
2017-02-01T05:29:07.980Z,0
2017-02-01T05:30:18.245Z,0
2017-02-01T05:31:28.084Z,0
2017-02-01T05:32:38.332Z,0
2017-02-01T05:33:47.705Z,0
2017-02-01T05:34:57.950Z,0
2017-02-01T05:36:08.201Z,0
2017-02-01T05:37:18.062Z,0
2017-02-01T05:38:28.316Z,0
2017-02-01T05:39:38.446Z,0
2017-02-01T05:40:48.692Z,0
2017-02-01T05:41:58.968Z,0
2017-02-01T05:43:09.641Z,0
2017-02-01T05:44:19.908Z,0
2017-02-01T05:45:30.787Z,0
2017-02-01T05:46:41.028Z,0
2017-02-01T05:47:50.889Z,0
2017-02-01T05:49:01.130Z,0
2017-02-01T05:50:11.368Z,0
2017-02-01T05:51:21.870Z,0
2017-02-01T05:52:32.108Z,0
2017-02-01T05:53:42.374Z,0
2017-02-01T05:54:52.627Z,0
2017-02-01T05:56:03.280Z,0
2017-02-01T05:57:13.779Z,0
2017-02-01T05:58:24.407Z,0
2017-02-01T05:59:34.260Z,0
2017-02-01T06:00:44.900Z,0
2017-02-01T06:01:55.536Z,0
2017-02-01T06:03:06.418Z,0
2017-02-01T06:04:16.683Z,0
2017-02-01T06:05:27.322Z,0
2017-02-01T06:06:37.569Z,0
2017-02-01T06:07:47.822Z,0
2017-02-01T06:08:58.316Z,0
2017-02-01T06:10:08.974Z,0
2017-02-01T06:11:18.453Z,0
2017-02-01T06:12:28.703Z,0
2017-02-01T06:13:39.354Z,0
2017-02-01T06:14:49.856Z,0
2017-02-01T06:15:59.323Z,0
2017-02-01T06:17:10.241Z,0
2017-02-01T06:18:20.870Z,0
2017-02-01T06:19:31.143Z,0
2017-02-01T06:20:41.674Z,0
2017-02-01T06:21:52.309Z,0
2017-02-01T06:23:02.952Z,4
2017-02-01T06:24:12.803Z,4
2017-02-01T06:25:23.111Z,4
2017-02-01T06:26:34.017Z,4
2017-02-01T06:27:44.268Z,4
2017-02-01T06:28:54.906Z,4
2017-02-01T06:30:04.778Z,4
2017-02-01T06:31:15.048Z,4
2017-02-01T06:32:25.985Z,8
2017-02-01T06:33:36.228Z,8
2017-02-01T06:34:46.865Z,8
2017-02-01T06:35:56.719Z,8
2017-02-01T06:37:06.580Z,4
2017-02-01T06:38:17.489Z,4
2017-02-01T06:39:28.125Z,4
2017-02-01T06:40:38.756Z,4
2017-02-01T06:41:49.065Z,8
2017-02-01T06:42:59.343Z,8
2017-02-01T06:44:10.234Z,8
2017-02-01T06:45:20.480Z,8
2017-02-01T06:46:31.110Z,8
2017-02-01T06:47:41.744Z,8
2017-02-01T06:48:51.999Z,8
2017-02-01T06:50:02.105Z,12
2017-02-01T06:51:12.349Z,12
2017-02-01T06:52:22.206Z,12
2017-02-01T06:53:32.594Z,16
2017-02-01T06:54:42.460Z,16
2017-02-01T06:55:53.337Z,20
2017-02-01T06:57:03.592Z,16
2017-02-01T06:58:13.834Z,20
2017-02-01T06:59:25.087Z,20
2017-02-01T07:00:35.745Z,20
2017-02-01T07:01:45.623Z,20
2017-02-01T07:02:56.275Z,24
2017-02-01T07:04:06.517Z,28
2017-02-01T07:05:16.780Z,20
2017-02-01T07:06:27.051Z,28
2017-02-01T07:07:37.938Z,28
2017-02-01T07:08:48.189Z,32
2017-02-01T07:09:58.830Z,36
2017-02-01T07:11:09.473Z,36
2017-02-01T07:12:19.747Z,36
2017-02-01T07:13:30.640Z,44
2017-02-01T07:14:40.507Z,44
2017-02-01T07:15:51.190Z,48
2017-02-01T07:17:01.060Z,52
2017-02-01T07:18:10.955Z,56
2017-02-01T07:19:21.066Z,60
2017-02-01T07:20:31.696Z,60
2017-02-01T07:21:41.158Z,64
2017-02-01T07:22:51.812Z,68
2017-02-01T07:24:02.112Z,72
2017-02-01T07:25:13.020Z,72
2017-02-01T07:26:23.664Z,84
2017-02-01T07:27:34.334Z,84
2017-02-01T07:28:44.973Z,84
2017-02-01T07:29:54.851Z,92
2017-02-01T07:31:05.651Z,96
2017-02-01T07:32:15.139Z,100
2017-02-01T07:33:25.774Z,116
2017-02-01T07:34:36.424Z,120
2017-02-01T07:35:47.147Z,132
2017-02-01T07:36:58.079Z,116
2017-02-01T07:38:08.343Z,128
2017-02-01T07:39:18.982Z,124
2017-02-01T07:40:28.844Z,140
2017-02-01T07:41:39.494Z,144
2017-02-01T07:42:50.699Z,152
2017-02-01T07:44:01.410Z,156
2017-02-01T07:45:11.675Z,152
2017-02-01T07:46:22.115Z,156
2017-02-01T07:47:32.848Z,156
2017-02-01T07:48:43.350Z,152
2017-02-01T07:49:53.598Z,160
2017-02-01T07:51:04.515Z,168
2017-02-01T07:52:15.172Z,160
2017-02-01T07:53:25.427Z,160
2017-02-01T07:54:35.935Z,168
2017-02-01T07:55:46.225Z,180
2017-02-01T07:56:56.099Z,148
2017-02-01T07:58:05.972Z,172
2017-02-01T07:59:16.612Z,176
2017-02-01T08:00:27.499Z,176
2017-02-01T08:01:37.757Z,200
2017-02-01T08:02:48.396Z,208
2017-02-01T08:03:59.032Z,236
2017-02-01T08:05:08.538Z,240
2017-02-01T08:06:19.036Z,244
2017-02-01T08:07:29.691Z,252
2017-02-01T08:08:39.960Z,244
2017-02-01T08:09:50.288Z,232
2017-02-01T08:11:00.952Z,244
2017-02-01T08:12:11.847Z,244
2017-02-01T08:13:21.832Z,248
2017-02-01T08:14:32.463Z,240
2017-02-01T08:15:42.708Z,244
2017-02-01T08:16:53.346Z,256
2017-02-01T08:18:04.233Z,280
2017-02-01T08:19:14.085Z,276
2017-02-01T08:20:24.742Z,296
2017-02-01T08:21:34.998Z,308
2017-02-01T08:22:44.854Z,304
2017-02-01T08:23:55.016Z,312
2017-02-01T08:25:04.872Z,324
2017-02-01T08:26:15.118Z,324
2017-02-01T08:27:25.373Z,372
2017-02-01T08:28:36.016Z,364
2017-02-01T08:29:46.124Z,388
2017-02-01T08:30:56.441Z,400
2017-02-01T08:32:06.699Z,392
2017-02-01T08:33:16.562Z,452
2017-02-01T08:34:26.420Z,460
2017-02-01T08:35:37.309Z,448
2017-02-01T08:36:47.947Z,424
2017-02-01T08:37:57.505Z,408
2017-02-01T08:39:07.837Z,404
2017-02-01T08:40:17.697Z,420
2017-02-01T08:41:28.598Z,416
2017-02-01T08:42:38.881Z,456
2017-02-01T08:43:49.150Z,476
2017-02-01T08:44:59.397Z,476
2017-02-01T08:46:09.658Z,576
2017-02-01T08:47:20.579Z,616
2017-02-01T08:48:30.834Z,616
2017-02-01T08:49:40.742Z,548
2017-02-01T08:50:51.381Z,576
2017-02-01T08:52:01.637Z,548
2017-02-01T08:53:12.043Z,632
2017-02-01T08:54:22.307Z,660
2017-02-01T08:55:32.551Z,752
2017-02-01T08:56:42.403Z,692
2017-02-01T08:57:52.271Z,780
2017-02-01T08:59:02.789Z,832
2017-02-01T09:00:12.660Z,736
2017-02-01T09:01:22.918Z,784
2017-02-01T09:02:33.190Z,768
2017-02-01T09:03:43.470Z,812
2017-02-01T09:04:54.387Z,816
2017-02-01T09:06:04.634Z,860
2017-02-01T09:07:15.561Z,808
2017-02-01T09:08:25.415Z,804
2017-02-01T09:09:36.052Z,892
2017-02-01T09:10:46.567Z,772
2017-02-01T09:11:57.321Z,792
2017-02-01T09:13:07.627Z,812
2017-02-01T09:14:17.104Z,840
2017-02-01T09:15:27.361Z,920
2017-02-01T09:16:38.268Z,796
2017-02-01T09:17:48.129Z,796
2017-02-01T09:18:58.759Z,880
2017-02-01T09:20:09.403Z,932
2017-02-01T09:21:20.046Z,904
2017-02-01T09:22:30.564Z,924
2017-02-01T09:23:40.828Z,1016
2017-02-01T09:24:51.471Z,1148
2017-02-01T09:26:02.113Z,1064
2017-02-01T09:27:12.759Z,1064
2017-02-01T09:28:22.886Z,1128
2017-02-01T09:29:33.147Z,1012
2017-02-01T09:30:43.404Z,1000
2017-02-01T09:31:53.648Z,980
2017-02-01T09:33:04.295Z,972
2017-02-01T09:34:14.395Z,1004
2017-02-01T09:35:25.043Z,924
2017-02-01T09:36:35.680Z,1020
2017-02-01T09:37:45.530Z,960
2017-02-01T09:38:55.802Z,1120
2017-02-01T09:40:06.721Z,1152
2017-02-01T09:41:16.967Z,1176
2017-02-01T09:42:26.865Z,1104
2017-02-01T09:43:37.124Z,1112
2017-02-01T09:44:46.989Z,1188
2017-02-01T09:45:57.888Z,1188
2017-02-01T09:47:07.751Z,1232
2017-02-01T09:48:17.615Z,1016
2017-02-01T09:49:28.256Z,1180
2017-02-01T09:50:38.491Z,1136
2017-02-01T09:51:49.420Z,1264
2017-02-01T09:52:59.680Z,1260
2017-02-01T09:54:09.544Z,1120
2017-02-01T09:55:19.411Z,1304
2017-02-01T09:56:29.662Z,1020
2017-02-01T09:57:40.576Z,1324
2017-02-01T09:58:51.222Z,1196
2017-02-01T10:00:01.881Z,1248
2017-02-01T10:01:12.533Z,1216
2017-02-01T10:02:22.395Z,1204
2017-02-01T10:03:32.397Z,1176
2017-02-01T10:04:42.644Z,1124
2017-02-01T10:05:52.500Z,1184
2017-02-01T10:07:03.210Z,1160
2017-02-01T10:08:13.465Z,1108
2017-02-01T10:09:23.979Z,1184
2017-02-01T10:10:34.233Z,1204
2017-02-01T10:11:44.105Z,1172
2017-02-01T10:12:54.348Z,1216
2017-02-01T10:14:04.594Z,1108
2017-02-01T10:15:15.100Z,1136
2017-02-01T10:16:25.350Z,1256
2017-02-01T10:17:35.597Z,1056
2017-02-01T10:18:46.244Z,1180
2017-02-01T10:19:56.873Z,1084
2017-02-01T10:21:07.394Z,888
2017-02-01T10:22:18.071Z,908
2017-02-01T10:23:28.706Z,924
2017-02-01T10:24:38.960Z,1080
2017-02-01T10:25:49.201Z,1196
2017-02-01T10:27:00.079Z,1276
2017-02-01T10:28:09.153Z,1192
2017-02-01T10:29:19.424Z,1320
2017-02-01T10:30:30.065Z,1188
2017-02-01T10:31:40.324Z,1288
2017-02-01T10:32:50.833Z,1292
2017-02-01T10:34:01.084Z,1160
2017-02-01T10:35:11.360Z,1156
2017-02-01T10:36:22.005Z,1112
2017-02-01T10:37:32.253Z,1260
2017-02-01T10:38:42.769Z,1200
2017-02-01T10:39:53.411Z,1104
2017-02-01T10:41:03.656Z,1088
2017-02-01T10:42:13.531Z,1124
2017-02-01T10:43:23.408Z,1292
2017-02-01T10:44:34.296Z,1196
2017-02-01T10:45:44.542Z,1200
2017-02-01T10:46:54.393Z,1256
2017-02-01T10:48:05.080Z,1148
2017-02-01T10:49:15.715Z,956
2017-02-01T10:50:26.653Z,1000
2017-02-01T10:51:37.312Z,1068
2017-02-01T10:52:47.950Z,936
2017-02-01T10:53:57.818Z,896
2017-02-01T10:55:08.080Z,832
2017-02-01T10:56:18.248Z,816
2017-02-01T10:57:28.514Z,824
2017-02-01T10:58:39.173Z,764
2017-02-01T10:59:49.441Z,800
2017-02-01T11:00:58.925Z,760
2017-02-01T11:02:09.332Z,732
2017-02-01T11:03:19.592Z,752
2017-02-01T11:04:29.842Z,772
2017-02-01T11:05:40.476Z,756
2017-02-01T11:06:51.125Z,732
2017-02-01T11:08:01.627Z,728
2017-02-01T11:09:11.878Z,724
2017-02-01T11:10:22.518Z,720
2017-02-01T11:11:32.372Z,704
2017-02-01T11:12:42.993Z,712
2017-02-01T11:13:53.875Z,720
2017-02-01T11:15:04.144Z,716
2017-02-01T11:16:14.394Z,716
2017-02-01T11:17:24.698Z,704
2017-02-01T11:18:35.358Z,688
2017-02-01T11:19:46.318Z,688
2017-02-01T11:20:56.962Z,692
2017-02-01T11:22:07.601Z,688
2017-02-01T11:23:17.865Z,684
2017-02-01T11:24:27.738Z,680
2017-02-01T11:25:38.494Z,672
2017-02-01T11:26:49.138Z,672
2017-02-01T11:27:59.404Z,656
2017-02-01T11:29:09.273Z,668
2017-02-01T11:30:19.537Z,664
2017-02-01T11:31:29.649Z,660
2017-02-01T11:32:40.280Z,660
2017-02-01T11:33:50.531Z,660
2017-02-01T11:35:00.787Z,656
2017-02-01T11:36:11.431Z,656
2017-02-01T11:37:21.928Z,648
2017-02-01T11:38:32.581Z,644
2017-02-01T11:39:43.236Z,644
2017-02-01T11:40:53.512Z,644
2017-02-01T11:42:04.158Z,640
2017-02-01T11:43:14.307Z,648
2017-02-01T11:44:24.571Z,648
2017-02-01T11:45:35.214Z,648
2017-02-01T11:46:45.846Z,640
2017-02-01T11:47:56.483Z,636
2017-02-01T11:49:07.401Z,632
2017-02-01T11:50:17.728Z,616
2017-02-01T11:51:28.013Z,592
2017-02-01T11:52:38.273Z,596
2017-02-01T11:53:48.916Z,576
2017-02-01T11:54:59.438Z,564
2017-02-01T11:56:09.706Z,568
2017-02-01T11:57:20.349Z,576
2017-02-01T11:58:30.613Z,560
2017-02-01T11:59:40.523Z,576
2017-02-01T12:00:51.028Z,552
2017-02-01T12:02:01.343Z,552
2017-02-01T12:03:11.213Z,548
2017-02-01T12:04:21.855Z,536
2017-02-01T12:05:32.496Z,540
2017-02-01T12:06:43.001Z,536
2017-02-01T12:07:53.638Z,536
2017-02-01T12:09:03.912Z,532
2017-02-01T12:10:13.786Z,528
2017-02-01T12:11:24.040Z,532
2017-02-01T12:12:34.151Z,528
2017-02-01T12:13:44.802Z,528
2017-02-01T12:14:54.666Z,528
2017-02-01T12:16:04.527Z,532
2017-02-01T12:17:14.824Z,524
2017-02-01T12:18:25.160Z,524
2017-02-01T12:19:35.424Z,528
2017-02-01T12:20:45.679Z,528
2017-02-01T12:21:55.147Z,528
2017-02-01T12:23:05.432Z,536
2017-02-01T12:24:16.006Z,540
2017-02-01T12:25:26.257Z,540
2017-02-01T12:26:36.526Z,540
2017-02-01T12:27:46.785Z,544
2017-02-01T12:28:57.070Z,548
2017-02-01T12:30:07.599Z,544
2017-02-01T12:31:17.468Z,552
2017-02-01T12:32:28.113Z,552
2017-02-01T12:33:38.778Z,556
2017-02-01T12:34:49.443Z,560
2017-02-01T12:36:00.329Z,564
2017-02-01T12:37:10.596Z,564
2017-02-01T12:38:21.225Z,564
2017-02-01T12:39:31.855Z,568
2017-02-01T12:40:41.714Z,568
2017-02-01T12:41:52.213Z,572
2017-02-01T12:43:02.478Z,576
2017-02-01T12:44:12.728Z,576
2017-02-01T12:45:22.988Z,592
2017-02-01T12:46:33.278Z,592
2017-02-01T12:47:43.794Z,612
2017-02-01T12:48:54.084Z,616
2017-02-01T12:50:04.394Z,632
2017-02-01T12:51:14.698Z,628
2017-02-01T12:52:24.572Z,620
2017-02-01T12:53:35.177Z,632
2017-02-01T12:54:45.472Z,628
2017-02-01T12:55:56.133Z,636
2017-02-01T12:57:06.790Z,644
2017-02-01T12:58:17.059Z,648
2017-02-01T12:59:27.961Z,652
2017-02-01T13:00:37.973Z,664
2017-02-01T13:01:47.929Z,668
2017-02-01T13:02:57.867Z,680
2017-02-01T13:04:07.845Z,684
2017-02-01T13:05:18.494Z,708
2017-02-01T13:06:29.149Z,688
2017-02-01T13:07:39.034Z,692
2017-02-01T13:08:49.006Z,700
2017-02-01T13:09:59.788Z,708
2017-02-01T13:11:09.916Z,716
2017-02-01T13:12:20.204Z,728
2017-02-01T13:13:30.457Z,732
2017-02-01T13:14:41.095Z,744
2017-02-01T13:15:51.723Z,756
2017-02-01T13:17:02.615Z,768
2017-02-01T13:18:12.550Z,780
2017-02-01T13:19:22.895Z,792
2017-02-01T13:20:33.158Z,800
2017-02-01T13:21:43.452Z,816
2017-02-01T13:22:53.269Z,832
2017-02-01T13:24:03.986Z,848
2017-02-01T13:25:14.757Z,860
2017-02-01T13:26:24.327Z,876
2017-02-01T13:27:35.066Z,892
2017-02-01T13:28:46.006Z,908
2017-02-01T13:29:56.328Z,920
2017-02-01T13:31:06.608Z,932
2017-02-01T13:32:16.526Z,940
2017-02-01T13:33:26.389Z,948
2017-02-01T13:34:37.195Z,952
2017-02-01T13:35:47.518Z,952
2017-02-01T13:36:57.793Z,948
2017-02-01T13:38:08.202Z,944
2017-02-01T13:39:18.562Z,936
2017-02-01T13:40:28.686Z,932
2017-02-01T13:41:39.004Z,924
2017-02-01T13:42:49.249Z,916
2017-02-01T13:43:59.108Z,908
2017-02-01T13:45:09.379Z,896
2017-02-01T13:46:20.305Z,888
2017-02-01T13:47:30.191Z,880
2017-02-01T13:48:40.837Z,868
2017-02-01T13:49:50.735Z,852
2017-02-01T13:51:00.991Z,848
2017-02-01T13:52:11.882Z,836
2017-02-01T13:53:22.140Z,824
2017-02-01T13:54:32.798Z,816
2017-02-01T13:55:42.665Z,804
2017-02-01T13:56:52.549Z,796
2017-02-01T13:58:03.054Z,788
2017-02-01T13:59:13.311Z,788
2017-02-01T14:00:23.564Z,788
2017-02-01T14:01:33.818Z,784
2017-02-01T14:02:44.088Z,788
2017-02-01T14:03:54.643Z,784
2017-02-01T14:05:05.281Z,780
2017-02-01T14:06:15.558Z,776
2017-02-01T14:07:25.820Z,772
2017-02-01T14:08:35.316Z,772
2017-02-01T14:09:46.217Z,760
2017-02-01T14:10:56.859Z,756
2017-02-01T14:12:07.498Z,748
2017-02-01T14:13:17.746Z,740
2017-02-01T14:14:28.427Z,732
2017-02-01T14:15:38.158Z,728
2017-02-01T14:16:48.413Z,720
2017-02-01T14:17:59.054Z,716
2017-02-01T14:19:08.922Z,696
2017-02-01T14:20:19.191Z,656
2017-02-01T14:21:29.700Z,600
2017-02-01T14:22:39.949Z,600
2017-02-01T14:23:50.195Z,580
2017-02-01T14:25:00.440Z,564
2017-02-01T14:26:10.297Z,548
2017-02-01T14:27:21.200Z,536
2017-02-01T14:28:31.448Z,532
2017-02-01T14:29:41.716Z,524
2017-02-01T14:30:51.983Z,516
2017-02-01T14:32:02.228Z,524
2017-02-01T14:33:13.018Z,524
2017-02-01T14:34:22.908Z,516
2017-02-01T14:35:33.175Z,500
2017-02-01T14:36:43.434Z,496
2017-02-01T14:37:53.297Z,504
2017-02-01T14:39:03.409Z,492
2017-02-01T14:40:13.677Z,500
2017-02-01T14:41:23.551Z,484
2017-02-01T14:42:33.450Z,484
2017-02-01T14:43:43.704Z,496
2017-02-01T14:44:54.208Z,476
2017-02-01T14:46:04.863Z,468
2017-02-01T14:47:15.136Z,460
2017-02-01T14:48:24.231Z,456
2017-02-01T14:49:34.929Z,444
2017-02-01T14:50:45.825Z,452
2017-02-01T14:51:56.381Z,464
2017-02-01T14:53:06.635Z,456
2017-02-01T14:54:16.123Z,456
2017-02-01T14:55:26.766Z,444
2017-02-01T14:56:36.900Z,440
2017-02-01T14:57:47.544Z,432
2017-02-01T14:58:57.422Z,424
2017-02-01T15:00:07.287Z,424
2017-02-01T15:01:17.550Z,416
2017-02-01T15:02:28.368Z,408
2017-02-01T15:03:38.626Z,416
2017-02-01T15:04:48.873Z,416
2017-02-01T15:05:58.346Z,396
2017-02-01T15:07:08.974Z,364
2017-02-01T15:08:19.488Z,344
2017-02-01T15:09:29.349Z,332
2017-02-01T15:10:40.286Z,312
2017-02-01T15:11:50.214Z,304
2017-02-01T15:13:00.470Z,296
2017-02-01T15:14:11.381Z,288
2017-02-01T15:15:21.650Z,276
2017-02-01T15:16:31.907Z,264
2017-02-01T15:17:42.154Z,260
2017-02-01T15:18:52.399Z,260
2017-02-01T15:20:02.893Z,256
2017-02-01T15:21:13.531Z,244
2017-02-01T15:22:24.201Z,240
2017-02-01T15:23:34.501Z,236
2017-02-01T15:24:44.373Z,228
2017-02-01T15:25:55.263Z,224
2017-02-01T15:27:05.526Z,216
2017-02-01T15:28:15.801Z,208
2017-02-01T15:29:26.073Z,208
2017-02-01T15:30:36.736Z,200
2017-02-01T15:31:47.243Z,200
2017-02-01T15:32:57.893Z,196
2017-02-01T15:34:08.136Z,192
2017-02-01T15:35:17.609Z,188
2017-02-01T15:36:27.872Z,180
2017-02-01T15:37:38.807Z,172
2017-02-01T15:38:49.431Z,172
2017-02-01T15:40:00.112Z,160
2017-02-01T15:41:10.369Z,156
2017-02-01T15:42:20.624Z,152
2017-02-01T15:43:31.521Z,144
2017-02-01T15:44:42.181Z,144
2017-02-01T15:45:52.826Z,144
2017-02-01T15:47:03.477Z,144
2017-02-01T15:48:14.115Z,140
2017-02-01T15:49:25.052Z,136
2017-02-01T15:50:35.309Z,132
2017-02-01T15:51:45.564Z,124
2017-02-01T15:52:55.822Z,120
2017-02-01T15:54:06.460Z,116
2017-02-01T15:55:17.340Z,112
2017-02-01T15:56:27.973Z,100
2017-02-01T15:57:38.616Z,96
2017-02-01T15:58:48.848Z,92
2017-02-01T15:59:59.140Z,84
2017-02-01T16:01:09.644Z,76
2017-02-01T16:02:19.510Z,72
2017-02-01T16:03:30.156Z,72
2017-02-01T16:04:40.805Z,64
2017-02-01T16:05:51.067Z,60
2017-02-01T16:07:02.012Z,56
2017-02-01T16:08:12.678Z,52
2017-02-01T16:09:23.425Z,48
2017-02-01T16:10:34.042Z,44
2017-02-01T16:11:44.683Z,36
2017-02-01T16:12:55.179Z,32
2017-02-01T16:14:05.426Z,32
2017-02-01T16:15:15.681Z,28
2017-02-01T16:16:25.535Z,20
2017-02-01T16:17:36.170Z,20
2017-02-01T16:18:46.675Z,20
2017-02-01T16:19:56.938Z,16
2017-02-01T16:21:07.202Z,16
2017-02-01T16:22:17.471Z,16
2017-02-01T16:23:28.124Z,12
2017-02-01T16:24:38.621Z,12
2017-02-01T16:25:48.869Z,12
2017-02-01T16:26:59.224Z,12
2017-02-01T16:28:09.335Z,8
2017-02-01T16:29:20.000Z,8
2017-02-01T16:30:30.899Z,4
2017-02-01T16:31:41.169Z,8
2017-02-01T16:32:51.413Z,8
2017-02-01T16:34:01.655Z,4
2017-02-01T16:35:11.932Z,4
2017-02-01T16:36:22.840Z,0
2017-02-01T16:37:33.474Z,4